Overview
25
Chuva Fraca
.
0
Chuva Moderada
.
0
Chuva Forte
.
0
Chuva Muito Forte
.
Chuva
Data Estação Fontes Chuva Inst. Chuva 1H Chuva 4H Chuva 24H Chuva 96H Chuva 30D
13/04/2021 05:15 Barreto 1 Defesa Civil Niteroi 0.4 mm 0.8 mm 6.4 mm 6.4 mm 6.4 mm 11.4 mm
13/04/2021 05:00 Boa Vista Defesa Civil Niteroi 0.2 mm 0.6 mm 6.2 mm 6.2 mm 6.2 mm 14.4 mm
13/04/2021 05:00 Caramujo Defesa Civil Niteroi 0.2 mm 1.4 mm 7.4 mm 7.4 mm 7.4 mm 28.2 mm
13/04/2021 05:15 Cavalão Defesa Civil Niteroi 0.2 mm 1.0 mm 6.2 mm 6.8 mm 6.8 mm 14.6 mm
13/04/2021 05:00 Engenho do Mato Defesa Civil Niteroi 0.2 mm 2.2 mm 7.6 mm 8.0 mm 8.0 mm 29.2 mm
13/04/2021 05:15 Itaipú Defesa Civil Niteroi 0.2 mm 2.0 mm 9.6 mm 9.6 mm 9.6 mm 32.2 mm
13/04/2021 05:00 Jurujuba Defesa Civil Niteroi 0.2 mm 1.2 mm 9.6 mm 10.6 mm 10.6 mm 17.4 mm
13/04/2021 05:15 Maceió Defesa Civil Niteroi 0.0 mm 2.2 mm 12.4 mm 12.8 mm 12.8 mm 30.6 mm
13/04/2021 05:00 Maravista Defesa Civil Niteroi 0.4 mm 1.8 mm 9.2 mm 9.6 mm 9.6 mm 28.6 mm
13/04/2021 05:00 Maria Paula Defesa Civil Niteroi 0.0 mm 0.0 mm 0.0 mm 0.0 mm 0.0 mm 0.0 mm
13/04/2021 05:00 Morro da Penha Defesa Civil Niteroi 0.6 mm 1.0 mm 5.4 mm 5.4 mm 5.4 mm 12.6 mm
13/04/2021 05:00 Morro do Palácio Defesa Civil Niteroi 0.0 mm 0.4 mm 1.8 mm 2.0 mm 2.0 mm 4.6 mm
13/04/2021 05:15 Pé Pequeno Defesa Civil Niteroi 0.4 mm 1.0 mm 6.2 mm 6.4 mm 6.4 mm 37.6 mm
13/04/2021 05:00 Piratininga Defesa Civil Niteroi 0.0 mm 2.0 mm 10.4 mm 12.0 mm 12.0 mm 47.8 mm
13/04/2021 05:15 Piratininga 2 Defesa Civil Niteroi 0.0 mm 1.6 mm 10.4 mm 14.2 mm 14.2 mm 26.4 mm
13/04/2021 05:00 Rio do Ouro Defesa Civil Niteroi 0.2 mm 1.0 mm 4.0 mm 5.2 mm 5.2 mm 19.2 mm
13/04/2021 05:00 São Francisco 1 Defesa Civil Niteroi 0.2 mm 1.2 mm 7.0 mm 7.2 mm 7.2 mm 15.8 mm
13/04/2021 05:00 Sapê Defesa Civil Niteroi 0.0 mm 2.2 mm 11.4 mm 11.6 mm 11.6 mm 37.0 mm
13/04/2021 05:00 Tenente Jardim Defesa Civil Niteroi 0.2 mm 0.4 mm 6.8 mm 7.0 mm 7.0 mm 12.6 mm
13/04/2021 05:00 Bairro de Fátima Defesa Civil Niteroi 0.2 mm 0.4 mm 4.2 mm 4.8 mm 4.8 mm 26.4 mm
13/04/2021 05:00 Bonfim 2 Defesa Civil Niteroi 0.2 mm 1.0 mm 6.4 mm 6.4 mm 6.4 mm 23.8 mm
13/04/2021 05:15 Coronel Leôncio Defesa Civil Niteroi 0.0 mm 0.0 mm 0.0 mm 0.0 mm 0.0 mm 0.0 mm
13/04/2021 05:15 Igrejinha Defesa Civil Niteroi 0.0 mm 0.0 mm 4.2 mm 4.2 mm 4.2 mm 23.4 mm
13/04/2021 05:00 Morro do Bumba Defesa Civil Niteroi 0.0 mm 0.0 mm 5.0 mm 9.0 mm 20.2 mm 44.4 mm
13/04/2021 05:00 Morro do Castro Defesa Civil Niteroi 0.0 mm 0.8 mm 20.8 mm 20.8 mm 20.8 mm 31.8 mm
13/04/2021 05:00 Morro do Estado Defesa Civil Niteroi 0.4 mm 1.2 mm 7.6 mm 7.8 mm 7.8 mm 20.6 mm
13/04/2021 05:15 Preventório Defesa Civil Niteroi 0.2 mm 1.6 mm 8.2 mm 8.2 mm 8.4 mm 15.4 mm
13/04/2021 05:00 Santa Bárbara 2 Defesa Civil Niteroi 0.2 mm 2.8 mm 9.4 mm 9.6 mm 9.6 mm 24.4 mm
13/04/2021 05:00 Travessa Beltrão Defesa Civil Niteroi 0.4 mm 1.2 mm 7.2 mm 7.2 mm 7.2 mm 7.2 mm
25,7 ºC / 25,7 ºC
Temperatura
83,0 % / 83,0 %
Umidade
7 KM/H
Velocidade do vento
Estações Meteorológicas
Estação Data Temperatura Umidade Direção do vento Velocidade do Vento Pressão
Niterói-A627 13/04/2021 01:00 25,7 83,0 228.0 7 1015.5 hPa